Time;durP1;ratioP1;P1;durP2;ratioP2;P2;SDS_P1;SDS_P2;PMS_P1;PMS_P2;Temp;Humidity;BMP_temperature;BMP_pressure;BME280_temperature;BME280_humidity;BME280_pressure;Samples;Min_cycle;Max_cycle;Signal;HPM_P1;HPM_P2
2022/07/14 00:02:19;;;;;;;7.53;4.00;;;16.50;99.90;;;;;;4444274;28;654474;-63
2022/07/14 00:05:08;;;;;;;10.70;3.73;;;16.40;99.90;;;;;;4433067;28;654251;-63
2022/07/14 00:07:55;;;;;;;6.33;3.90;;;16.30;99.90;;;;;;4432045;28;656553;-64
2022/07/14 00:10:42;;;;;;;11.47;4.03;;;16.50;99.90;;;;;;4455456;28;655042;-63
2022/07/14 00:13:29;;;;;;;7.60;3.77;;;16.40;99.90;;;;;;4450332;28;655604;-63
2022/07/14 00:16:17;;;;;;;9.80;3.83;;;16.30;99.90;;;;;;4413852;28;655220;-63
2022/07/14 00:19:04;;;;;;;6.40;3.80;;;16.20;99.90;;;;;;4417611;28;653988;-63
2022/07/14 00:21:52;;;;;;;7.20;4.00;;;16.10;99.90;;;;;;4398686;28;654622;-63
2022/07/14 00:24:39;;;;;;;9.47;3.70;;;16.40;99.90;;;;;;4417719;28;654410;-63
2022/07/14 00:27:27;;;;;;;6.00;3.80;;;16.40;99.90;;;;;;4399016;28;655327;-63
2022/07/14 00:30:14;;;;;;;6.83;4.00;;;16.30;99.90;;;;;;4416836;28;654891;-63
2022/07/14 00:33:01;;;;;;;6.30;4.17;;;16.10;99.90;;;;;;4404808;28;654500;-63
2022/07/14 00:35:48;;;;;;;8.83;3.53;;;16.00;99.90;;;;;;4435136;28;654800;-63
2022/07/14 00:38:36;;;;;;;9.77;3.80;;;15.90;99.90;;;;;;4423777;28;654707;-65
2022/07/14 00:41:24;;;;;;;6.93;3.67;;;15.80;99.90;;;;;;4446575;28;654781;-63
2022/07/14 00:44:11;;;;;;;14.90;3.70;;;15.90;99.90;;;;;;4432656;28;654482;-63
2022/07/14 00:46:58;;;;;;;9.20;3.83;;;15.80;99.90;;;;;;4436694;28;656710;-63
2022/07/14 00:49:45;;;;;;;13.97;4.20;;;15.80;99.90;;;;;;4412164;28;654405;-63
2022/07/14 00:52:32;;;;;;;10.67;3.87;;;15.80;99.90;;;;;;4419994;28;656260;-63
2022/07/14 00:55:21;;;;;;;12.93;3.63;;;15.80;99.90;;;;;;4416389;28;655539;-63
2022/07/14 00:58:08;;;;;;;8.30;4.10;;;15.80;99.90;;;;;;4393430;28;656558;-63
2022/07/14 01:00:55;;;;;;;6.93;3.60;;;15.90;99.90;;;;;;4398044;28;654709;-64
2022/07/14 01:03:42;;;;;;;12.63;3.70;;;15.90;99.90;;;;;;4421512;28;654788;-63
2022/07/14 01:06:30;;;;;;;8.17;3.80;;;15.90;99.90;;;;;;4416085;28;655628;-63
2022/07/14 01:09:17;;;;;;;7.13;3.67;;;16.00;99.90;;;;;;4417459;28;655460;-63
2022/07/14 01:12:07;;;;;;;7.43;3.90;;;16.00;99.90;;;;;;4416981;28;654328;-63
2022/07/14 01:14:54;;;;;;;9.03;3.90;;;16.00;99.90;;;;;;4396469;28;653984;-63
2022/07/14 01:17:41;;;;;;;9.50;4.13;;;16.10;99.90;;;;;;4395780;28;654814;-63
2022/07/14 01:20:28;;;;;;;7.57;3.50;;;16.10;99.90;;;;;;4416872;28;655289;-63
2022/07/14 01:23:17;;;;;;;10.00;4.10;;;16.10;99.90;;;;;;4400902;28;654443;-63
2022/07/14 01:26:04;;;;;;;6.83;3.77;;;16.20;99.90;;;;;;4419212;28;655843;-63
2022/07/14 01:28:51;;;;;;;10.13;4.40;;;16.20;99.90;;;;;;4401755;28;654696;-63
2022/07/14 01:31:38;;;;;;;13.17;3.67;;;16.30;99.90;;;;;;4419382;28;656081;-63
2022/07/14 01:34:27;;;;;;;5.77;3.57;;;16.30;99.90;;;;;;4400680;28;655266;-63
2022/07/14 01:37:14;;;;;;;6.83;4.10;;;16.40;99.90;;;;;;4419348;28;654644;-63
2022/07/14 01:40:03;;;;;;;8.00;3.80;;;16.40;99.90;;;;;;4401749;28;654539;-63
2022/07/14 01:42:50;;;;;;;5.60;4.00;;;16.40;99.90;;;;;;4404892;28;654560;-64
2022/07/14 01:45:37;;;;;;;6.17;3.73;;;16.40;99.90;;;;;;4429825;28;654980;-63
2022/07/14 01:48:24;;;;;;;7.23;3.87;;;16.50;99.90;;;;;;4437404;28;654839;-63
2022/07/14 01:51:12;;;;;;;6.53;3.83;;;16.50;99.90;;;;;;4414791;28;654613;-63
2022/07/14 01:53:59;;;;;;;8.27;3.63;;;16.50;99.90;;;;;;4437080;28;654558;-63
2022/07/14 01:56:47;;;;;;;6.93;4.10;;;16.40;99.90;;;;;;4418371;28;654553;-63
2022/07/14 01:59:34;;;;;;;6.90;4.13;;;16.50;99.90;;;;;;4416045;28;655177;-63
2022/07/14 02:02:21;;;;;;;5.80;4.10;;;16.60;99.90;;;;;;4393216;28;654268;-63
2022/07/14 02:05:09;;;;;;;6.63;3.87;;;16.60;99.90;;;;;;4419773;28;654613;-63
2022/07/14 02:07:56;;;;;;;7.60;3.97;;;16.60;99.90;;;;;;4401028;28;654449;-63
2022/07/14 02:13:49;;;;;;;9.53;3.87;;;16.60;99.90;;;;;;4396970;28;654713;-63
2022/07/14 02:16:36;;;;;;;5.47;3.80;;;16.60;99.90;;;;;;4401306;28;654736;-63
2022/07/14 02:19:24;;;;;;;12.57;3.77;;;16.60;99.90;;;;;;4419667;28;655835;-63
2022/07/14 02:22:11;;;;;;;7.00;3.77;;;16.60;99.90;;;;;;4399463;28;655408;-63
2022/07/14 02:24:58;;;;;;;7.93;4.10;;;16.60;99.90;;;;;;4423429;28;655671;-63
2022/07/14 02:27:45;;;;;;;7.53;3.83;;;16.70;99.90;;;;;;4401940;28;654500;-64
2022/07/14 02:30:34;;;;;;;6.93;3.70;;;16.70;99.90;;;;;;4423337;28;655975;-63
2022/07/14 02:33:21;;;;;;;7.00;3.73;;;16.70;99.90;;;;;;4417586;28;654421;-63
2022/07/14 02:36:08;;;;;;;6.57;3.40;;;16.70;99.90;;;;;;4437707;28;654822;-63
2022/07/14 02:38:55;;;;;;;4.77;3.40;;;16.70;99.90;;;;;;4427774;28;654508;-64
2022/07/14 02:41:42;;;;;;;7.27;4.10;;;16.70;99.90;;;;;;4453664;28;655992;-63
2022/07/14 02:44:30;;;;;;;9.90;3.60;;;16.80;99.90;;;;;;4451145;28;654925;-64
2022/07/14 02:47:18;;;;;;;11.60;4.10;;;16.80;99.90;;;;;;4423180;28;655500;-63
2022/07/14 02:50:07;;;;;;;7.57;3.87;;;16.70;99.90;;;;;;4414350;28;655488;-64
2022/07/14 02:52:54;;;;;;;7.27;3.90;;;16.70;99.90;;;;;;4436370;28;654588;-63
2022/07/14 02:55:41;;;;;;;7.83;4.33;;;16.70;99.90;;;;;;4417484;28;654585;-64
2022/07/14 02:58:28;;;;;;;7.63;4.13;;;16.70;99.90;;;;;;4436657;28;654880;-63
2022/07/14 03:01:15;;;;;;;6.60;3.80;;;16.70;99.90;;;;;;4417754;28;654696;-64
2022/07/14 03:04:04;;;;;;;8.87;3.80;;;16.60;99.90;;;;;;4436653;28;655537;-63
2022/07/14 03:06:52;;;;;;;7.37;3.97;;;16.60;99.90;;;;;;4417153;28;654433;-63
2022/07/14 03:09:39;;;;;;;9.40;3.80;;;16.60;99.90;;;;;;4436505;28;654673;-63
2022/07/14 03:12:26;;;;;;;5.30;3.50;;;16.60;99.90;;;;;;4417643;28;654994;-63
2022/07/14 03:15:13;;;;;;;5.43;3.60;;;16.70;99.90;;;;;;4436448;28;654540;-63
2022/07/14 03:18:01;;;;;;;16.70;3.27;;;16.70;99.90;;;;;;4417400;28;654605;-64
2022/07/14 03:20:49;;;;;;;6.43;3.83;;;16.60;99.90;;;;;;4438870;28;656805;-63
2022/07/14 03:23:36;;;;;;;9.13;3.67;;;16.70;99.90;;;;;;4416188;28;654477;-63
2022/07/14 03:26:24;;;;;;;4.33;2.60;;;16.80;99.90;;;;;;4436087;28;654909;-63
2022/07/14 03:29:11;;;;;;;5.83;2.93;;;17.60;99.90;;;;;;4417171;28;655120;-63
2022/07/14 03:31:58;;;;;;;5.27;2.70;;;17.70;99.90;;;;;;4436171;28;655845;-63
2022/07/14 03:34:45;;;;;;;9.27;2.67;;;17.90;99.90;;;;;;4416305;28;654842;-64
2022/07/14 03:37:34;;;;;;;10.97;2.77;;;18.00;99.90;;;;;;4435698;28;656338;-63
2022/07/14 03:40:21;;;;;;;5.43;3.03;;;18.30;99.90;;;;;;4421576;28;656017;-63
2022/07/14 03:43:08;;;;;;;6.53;2.77;;;18.20;99.90;;;;;;4435744;28;654810;-63
2022/07/14 03:45:55;;;;;;;7.37;2.73;;;18.20;99.90;;;;;;4416277;28;654465;-64
2022/07/14 03:48:42;;;;;;;11.80;2.87;;;18.10;99.90;;;;;;4440125;28;655189;-63
2022/07/14 03:51:29;;;;;;;4.90;3.00;;;18.10;99.90;;;;;;4434562;28;657017;-63
2022/07/14 03:54:18;;;;;;;4.33;2.67;;;18.10;99.90;;;;;;4416961;28;654574;-63
2022/07/14 03:57:05;;;;;;;7.67;3.27;;;18.10;99.90;;;;;;4412714;28;654403;-65
2022/07/14 03:59:52;;;;;;;7.47;3.10;;;18.00;99.90;;;;;;4418335;28;655566;-63
2022/07/14 04:02:40;;;;;;;6.80;2.80;;;17.90;99.90;;;;;;4417825;28;654378;-63
2022/07/14 04:05:27;;;;;;;4.37;2.80;;;17.90;99.90;;;;;;4422113;28;655067;-63
2022/07/14 04:08:14;;;;;;;6.07;3.20;;;18.00;99.90;;;;;;4418123;28;654757;-63
2022/07/14 04:11:03;;;;;;;12.00;3.27;;;17.70;99.90;;;;;;4399684;28;654730;-63
2022/07/14 04:13:50;;;;;;;4.17;3.10;;;17.70;99.90;;;;;;4406302;28;655341;-65
2022/07/14 04:16:39;;;;;;;5.63;3.00;;;17.80;99.90;;;;;;4439663;28;655744;-63
2022/07/14 04:19:26;;;;;;;5.63;3.20;;;17.90;99.90;;;;;;4416421;28;654766;-63
2022/07/14 04:22:13;;;;;;;6.77;3.00;;;18.00;99.90;;;;;;4435167;28;656071;-63
2022/07/14 04:25:00;;;;;;;5.80;3.07;;;18.20;99.90;;;;;;4416685;28;654442;-64
2022/07/14 04:27:49;;;;;;;6.33;3.20;;;18.20;99.90;;;;;;4435107;28;655352;-63
2022/07/14 04:30:36;;;;;;;6.43;3.37;;;18.40;99.90;;;;;;4411950;28;654342;-63
2022/07/14 04:33:23;;;;;;;6.47;3.23;;;18.70;99.90;;;;;;4418090;28;655457;-63
2022/07/14 04:36:11;;;;;;;10.20;3.30;;;18.80;99.90;;;;;;4399064;28;654407;-64
2022/07/14 04:38:58;;;;;;;5.07;2.93;;;19.00;99.90;;;;;;4441026;28;656213;-63
2022/07/14 04:41:45;;;;;;;6.40;3.43;;;19.20;99.90;;;;;;4439504;28;654817;-65
2022/07/14 04:44:34;;;;;;;6.20;3.17;;;19.40;99.90;;;;;;4456017;28;656121;-63
2022/07/14 04:47:21;;;;;;;6.20;2.97;;;19.60;99.90;;;;;;4399668;28;654989;-63
2022/07/14 04:53:19;;;;;;;8.73;3.00;;;19.80;99.90;;;;;;4348250;28;654635;-64
2022/07/14 04:56:06;;;;;;;9.47;2.80;;;19.80;99.90;;;;;;4399749;28;654561;-63
2022/07/14 04:58:53;;;;;;;6.00;2.70;;;19.80;99.90;;;;;;4421418;28;654886;-63
2022/07/14 05:01:41;;;;;;;6.22;2.70;;;19.90;99.90;;;;;;4402413;28;654383;-65
2022/07/14 05:04:29;;;;;;;3.67;2.50;;;19.90;99.90;;;;;;4421055;28;653956;-64
2022/07/14 05:07:16;;;;;;;5.90;2.60;;;20.10;99.90;;;;;;4401747;28;654227;-63
2022/07/14 05:10:03;;;;;;;3.20;2.40;;;20.30;99.90;;;;;;4421800;28;655272;-64
2022/07/14 05:12:50;;;;;;;3.87;2.40;;;20.30;99.90;;;;;;4402377;28;654485;-64
2022/07/14 05:15:37;;;;;;;4.00;2.17;;;20.40;99.90;;;;;;4420654;28;654767;-63
2022/07/14 05:18:26;;;;;;;5.07;2.50;;;20.50;99.90;;;;;;4416518;28;654441;-65
2022/07/14 05:21:14;;;;;;;3.47;2.30;;;20.50;99.90;;;;;;4421223;28;654348;-63
2022/07/14 05:24:01;;;;;;;7.57;2.10;;;20.50;99.90;;;;;;4401944;28;654828;-64
2022/07/14 05:26:48;;;;;;;4.63;2.10;;;20.70;99.80;;;;;;4421005;28;655255;-63
2022/07/14 05:29:35;;;;;;;9.83;2.20;;;20.70;99.90;;;;;;4401814;28;654520;-64
2022/07/14 05:32:22;;;;;;;3.63;2.40;;;20.90;99.90;;;;;;4424934;28;655469;-63
2022/07/14 05:35:11;;;;;;;4.23;2.50;;;20.90;99.90;;;;;;4420732;28;655096;-63
2022/07/14 05:37:58;;;;;;;6.93;2.50;;;21.00;99.90;;;;;;4403559;28;656268;-64
2022/07/14 05:40:45;;;;;;;6.13;2.80;;;21.00;99.90;;;;;;4403128;28;654362;-64
2022/07/14 05:43:32;;;;;;;9.10;3.20;;;21.00;99.90;;;;;;4424626;28;654365;-63
2022/07/14 05:46:19;;;;;;;5.03;2.23;;;21.20;99.40;;;;;;4431442;28;654501;-63
2022/07/14 05:49:06;;;;;;;3.77;2.23;;;21.40;99.90;;;;;;4415744;28;654541;-63
2022/07/14 05:51:55;;;;;;;4.77;2.20;;;21.70;98.20;;;;;;4437787;28;655496;-63
2022/07/14 05:54:42;;;;;;;3.77;1.97;;;21.90;96.10;;;;;;4415209;28;655075;-63
2022/07/14 05:57:29;;;;;;;5.50;2.53;;;22.10;99.90;;;;;;4415461;28;654835;-63
2022/07/14 06:00:16;;;;;;;7.80;2.57;;;22.00;96.50;;;;;;4401732;28;654561;-64
2022/07/14 06:03:04;;;;;;;6.47;2.13;;;21.90;98.30;;;;;;4420001;28;655678;-64
2022/07/14 06:05:51;;;;;;;10.07;2.23;;;22.00;92.70;;;;;;4401319;28;654734;-64
2022/07/14 06:08:40;;;;;;;5.87;2.40;;;21.70;97.30;;;;;;4417258;28;655884;-63
2022/07/14 06:11:27;;;;;;;5.90;2.50;;;21.70;99.10;;;;;;4399076;28;655545;-64
2022/07/14 06:14:15;;;;;;;4.33;2.20;;;21.40;99.30;;;;;;4420353;28;654511;-63
2022/07/14 06:17:02;;;;;;;5.73;2.57;;;21.10;99.90;;;;;;4397128;28;654823;-63
2022/07/14 06:19:49;;;;;;;5.50;2.60;;;21.20;99.00;;;;;;4419428;28;655025;-63
2022/07/14 06:22:37;;;;;;;4.47;2.60;;;21.40;98.70;;;;;;4396730;28;654918;-64
2022/07/14 06:25:25;;;;;;;7.63;2.40;;;21.70;99.90;;;;;;4419394;28;655195;-63
2022/07/14 06:28:13;;;;;;;7.43;2.37;;;21.50;99.50;;;;;;4396243;28;655145;-64
2022/07/14 06:31:00;;;;;;;8.33;2.23;;;21.60;99.90;;;;;;4413787;28;654736;-64
2022/07/14 06:33:47;;;;;;;4.27;2.20;;;21.60;99.40;;;;;;4423300;28;654462;-63
2022/07/14 06:36:34;;;;;;;8.00;2.70;;;21.70;99.20;;;;;;4419041;28;654418;-63
2022/07/14 06:39:21;;;;;;;6.07;2.30;;;21.80;96.20;;;;;;4409827;28;654220;-64
2022/07/14 06:42:10;;;;;;;5.20;2.00;;;22.20;92.30;;;;;;4436977;28;654906;-63
2022/07/14 06:44:57;;;;;;;6.87;2.43;;;22.40;91.50;;;;;;4413862;28;655486;-63
2022/07/14 06:47:44;;;;;;;10.33;2.43;;;22.60;91.70;;;;;;4430243;28;654536;-62
2022/07/14 06:50:31;;;;;;;5.70;2.30;;;22.70;91.00;;;;;;4416760;28;655442;-64
2022/07/14 06:53:18;;;;;;;5.43;2.00;;;22.90;89.40;;;;;;4436578;28;654536;-64
2022/07/14 06:56:06;;;;;;;13.07;2.50;;;23.20;88.40;;;;;;4417583;28;654566;-65
2022/07/14 06:58:54;;;;;;;6.73;2.40;;;22.90;85.50;;;;;;4438101;28;656274;-64
2022/07/14 07:01:41;;;;;;;8.47;2.77;;;22.60;86.30;;;;;;4415516;28;654595;-64
2022/07/14 07:04:28;;;;;;;4.23;2.37;;;22.50;90.40;;;;;;4435968;28;655670;-64
2022/07/14 07:07:14;;;;;;;5.67;2.87;;;22.50;92.30;;;;;;4417614;28;654783;-64
2022/07/14 07:10:01;;;;;;;6.60;2.57;;;22.60;94.70;;;;;;4440275;28;654208;-64
2022/07/14 07:12:49;;;;;;;7.43;2.47;;;22.40;95.90;;;;;;4436481;28;654568;-64
2022/07/14 07:15:38;;;;;;;6.50;2.87;;;22.80;94.70;;;;;;4415131;28;654875;-64
2022/07/14 07:18:26;;;;;;;7.83;2.40;;;23.00;94.60;;;;;;4417027;28;654370;-64
2022/07/14 07:21:14;;;;;;;7.13;2.73;;;23.40;92.50;;;;;;4420049;28;655328;-64
2022/07/14 07:24:01;;;;;;;10.57;2.90;;;23.50;95.10;;;;;;4400086;28;654513;-64
2022/07/14 07:26:49;;;;;;;6.37;3.10;;;23.20;92.10;;;;;;4437126;28;655458;-64
2022/07/14 07:29:37;;;;;;;6.03;2.70;;;23.50;90.40;;;;;;4434258;28;654436;-64
2022/07/14 07:32:25;;;;;;;6.27;2.70;;;23.70;89.20;;;;;;4447303;28;654498;-64
2022/07/14 07:35:12;;;;;;;9.80;2.60;;;23.50;85.60;;;;;;4399976;28;655660;-64
2022/07/14 07:37:59;;;;;;;7.67;2.60;;;23.50;90.70;;;;;;4425906;28;654311;-64
2022/07/14 07:40:48;;;;;;;6.97;2.70;;;23.50;90.00;;;;;;4415112;28;654638;-64
2022/07/14 07:43:35;;;;;;;9.37;2.90;;;23.50;91.30;;;;;;4417103;28;654525;-64
2022/07/14 07:46:22;;;;;;;5.00;2.83;;;23.80;89.30;;;;;;4435588;28;654863;-64
2022/07/14 07:49:11;;;;;;;7.50;2.63;;;24.10;91.50;;;;;;4418186;28;654639;-65
2022/07/14 07:51:59;;;;;;;4.63;2.30;;;24.60;85.10;;;;;;4399182;28;654934;-65
2022/07/14 07:54:46;;;;;;;4.37;2.30;;;24.20;90.60;;;;;;4403047;28;654334;-65
2022/07/14 07:57:33;;;;;;;6.20;2.50;;;24.50;88.40;;;;;;4429559;28;655549;-65
2022/07/14 08:00:20;;;;;;;8.68;2.40;;;25.10;88.60;;;;;;4397248;28;654645;-66
2022/07/14 08:03:07;;;;;;;7.93;2.65;;;24.90;90.20;;;;;;4422430;28;655133;-65
2022/07/14 08:05:56;;;;;;;7.97;2.70;;;24.70;83.50;;;;;;4412620;28;654648;-66
2022/07/14 08:08:43;;;;;;;8.30;2.50;;;25.30;84.70;;;;;;4417742;28;654771;-65
2022/07/14 08:11:32;;;;;;;7.88;2.42;;;25.50;84.60;;;;;;4399227;28;654674;-65
2022/07/14 08:17:23;;;;;;;3.58;2.22;;;25.00;80.00;;;;;;4396362;28;654601;-65
2022/07/14 08:20:12;;;;;;;11.43;2.42;;;25.70;81.40;;;;;;4399619;28;654522;-65
2022/07/14 08:23:00;;;;;;;3.78;2.25;;;25.90;77.60;;;;;;4415795;28;655516;-65
2022/07/14 08:25:47;;;;;;;8.18;2.50;;;25.70;80.00;;;;;;4394852;28;655229;-66
2022/07/14 08:28:34;;;;;;;7.70;2.50;;;25.60;74.70;;;;;;4419953;28;654121;-65
2022/07/14 08:31:22;;;;;;;5.47;2.60;;;25.40;72.80;;;;;;4411161;28;654795;-65
2022/07/14 08:34:09;;;;;;;5.68;2.35;;;25.30;75.70;;;;;;4416329;28;654559;-66
2022/07/14 08:36:58;;;;;;;4.28;2.50;;;25.70;77.80;;;;;;4397275;28;654428;-64
2022/07/14 08:39:47;;;;;;;8.13;2.72;;;25.70;74.50;;;;;;4396756;28;654688;-65
2022/07/14 08:42:36;;;;;;;6.18;2.85;;;26.30;71.40;;;;;;4401605;28;654319;-65
2022/07/14 08:45:24;;;;;;;7.35;2.83;;;26.20;69.60;;;;;;4420825;28;655417;-65
2022/07/14 08:48:11;;;;;;;9.45;3.00;;;26.10;69.50;;;;;;4390476;28;655388;-65
2022/07/14 08:50:58;;;;;;;4.70;2.70;;;26.00;68.60;;;;;;4417730;28;655049;-65
2022/07/14 08:53:46;;;;;;;12.98;2.70;;;26.00;69.30;;;;;;4397560;28;654512;-65
2022/07/14 08:56:34;;;;;;;10.75;2.90;;;25.80;69.20;;;;;;4424683;28;656103;-65
2022/07/14 08:59:21;;;;;;;13.30;3.00;;;26.40;70.50;;;;;;4395389;28;655356;-65
2022/07/14 09:02:08;;;;;;;5.72;2.88;;;26.60;69.10;;;;;;4414397;28;655785;-66
2022/07/14 09:04:55;;;;;;;5.53;2.55;;;26.40;65.30;;;;;;4396598;28;655155;-65
2022/07/14 09:07:42;;;;;;;2.92;1.90;;;25.90;65.00;;;;;;4420456;28;654817;-65
2022/07/14 09:10:30;;;;;;;6.80;2.63;;;26.00;63.30;;;;;;4416009;28;655790;-66
2022/07/14 09:13:20;;;;;;;15.48;3.00;;;26.20;66.40;;;;;;4416812;28;655698;-65
2022/07/14 09:16:14;;;;;;;5.53;2.70;;;26.80;61.00;;;;;;4392622;28;656640;-66
2022/07/14 09:19:02;;;;;;;7.55;2.38;;;27.00;61.10;;;;;;4370743;28;655327;-65
2022/07/14 09:21:58;;;;;;;4.50;2.70;;;27.10;59.80;;;;;;4413647;28;654471;-65
2022/07/14 09:24:51;;;;;;;8.02;2.92;;;26.90;64.60;;;;;;4378326;28;654838;-66
2022/07/14 09:27:38;;;;;;;6.18;2.80;;;26.90;60.20;;;;;;4399014;28;654910;-65
2022/07/14 09:30:27;;;;;;;4.05;2.58;;;27.00;59.10;;;;;;4401221;28;655267;-65
2022/07/14 09:33:14;;;;;;;3.20;2.50;;;26.90;61.00;;;;;;4415424;28;654592;-65
2022/07/14 09:36:01;;;;;;;8.73;2.70;;;27.00;60.30;;;;;;4398268;28;654323;-65
2022/07/14 09:38:48;;;;;;;6.55;2.60;;;26.70;58.30;;;;;;4416119;28;655474;-65
2022/07/14 09:41:37;;;;;;;3.42;2.30;;;27.00;61.10;;;;;;4397714;28;654682;-65
2022/07/14 09:44:24;;;;;;;8.00;2.45;;;27.10;58.80;;;;;;4417591;28;654896;-65
2022/07/14 09:47:12;;;;;;;4.45;1.77;;;27.80;61.60;;;;;;4397052;28;654534;-65
2022/07/14 09:49:59;;;;;;;5.50;2.65;;;27.60;57.20;;;;;;4419575;28;654452;-65
2022/07/14 09:52:46;;;;;;;7.32;2.88;;;27.30;57.40;;;;;;4401590;28;654381;-64
2022/07/14 09:55:35;;;;;;;5.68;2.65;;;27.00;60.00;;;;;;4426096;28;654964;-64
2022/07/14 09:58:23;;;;;;;3.65;2.47;;;26.90;60.70;;;;;;4400490;28;654663;-65
2022/07/14 10:01:11;;;;;;;5.75;2.72;;;26.70;59.40;;;;;;4405117;28;654355;-65
2022/07/14 10:04:00;;;;;;;6.85;2.55;;;27.30;59.90;;;;;;4418430;28;655684;-65
2022/07/14 10:06:47;;;;;;;5.82;2.78;;;27.80;63.80;;;;;;4399422;28;655592;-65
2022/07/14 10:09:37;;;;;;;6.15;2.78;;;28.70;57.00;;;;;;4423571;28;655368;-65
2022/07/14 10:12:25;;;;;;;8.07;2.70;;;28.70;53.80;;;;;;4396869;28;654053;-65
2022/07/14 10:15:13;;;;;;;6.80;2.25;;;29.30;56.90;;;;;;4397327;28;654710;-65
2022/07/14 10:18:03;;;;;;;9.32;2.55;;;28.30;57.10;;;;;;4408617;28;655040;-66
2022/07/14 10:20:53;;;;;;;5.57;2.47;;;28.30;56.00;;;;;;4405222;28;654482;-65
2022/07/14 10:23:40;;;;;;;5.13;2.90;;;28.50;55.10;;;;;;4410815;28;654665;-65
2022/07/14 10:26:28;;;;;;;5.88;2.53;;;28.50;56.90;;;;;;4418860;28;655275;-65
2022/07/14 10:29:15;;;;;;;8.00;2.53;;;28.40;55.20;;;;;;4414502;28;655092;-66
2022/07/14 10:32:12;;;;;;;4.55;2.72;;;28.40;54.60;;;;;;4423389;28;655414;-65
2022/07/14 10:35:10;;;;;;;2.72;2.28;;;28.70;54.20;;;;;;4401136;28;655034;-65
2022/07/14 10:38:13;;;;;;;5.22;2.58;;;28.90;52.20;;;;;;4380245;28;655851;-65
2022/07/14 10:41:05;;;;;;;7.55;3.05;;;28.10;55.70;;;;;;4380856;28;654474;-65
2022/07/14 10:44:03;;;;;;;8.57;2.60;;;28.00;57.30;;;;;;4400447;28;654816;-65
2022/07/14 10:46:52;;;;;;;10.13;2.72;;;28.10;54.80;;;;;;4384955;28;654763;-65
2022/07/14 10:50:01;;;;;;;6.80;2.38;;;28.30;55.90;;;;;;4422984;28;656085;-65
2022/07/14 10:53:08;;;;;;;7.30;2.75;;;28.00;53.90;;;;;;4401009;28;654362;-65
2022/07/14 10:55:55;;;;;;;6.00;2.50;;;27.10;56.30;;;;;;4385302;28;655026;-66
2022/07/14 10:58:42;;;;;;;6.05;2.58;;;27.70;56.90;;;;;;4419062;28;655473;-65
2022/07/14 11:01:30;;;;;;;7.60;2.53;;;27.50;57.60;;;;;;4423233;28;655380;-65
2022/07/14 11:04:44;;;;;;;10.75;2.60;;;27.80;60.30;;;;;;4431861;28;655912;-65
2022/07/14 11:07:53;;;;;;;4.15;2.45;;;27.80;54.70;;;;;;4403322;28;656648;-65
2022/07/14 11:11:09;;;;;;;6.50;3.05;;;28.40;57.40;;;;;;4382367;28;654555;-66
2022/07/14 11:14:07;;;;;;;7.20;2.53;;;29.10;53.40;;;;;;4396990;28;654274;-65
2022/07/14 11:16:56;;;;;;;13.25;2.53;;;28.40;54.20;;;;;;4394107;28;654661;-65
2022/07/14 11:19:43;;;;;;;11.07;2.22;;;28.40;54.10;;;;;;4394729;28;656067;-65
2022/07/14 11:22:30;;;;;;;6.05;1.90;;;28.00;54.90;;;;;;4404144;28;655536;-66
2022/07/14 11:25:27;;;;;;;5.57;2.72;;;27.50;54.50;;;;;;4418527;28;655607;-65
2022/07/14 11:28:35;;;;;;;7.28;2.25;;;27.20;55.40;;;;;;4395967;28;654421;-65
2022/07/14 11:31:23;;;;;;;5.88;2.40;;;27.50;55.40;;;;;;4377014;28;654556;-65
2022/07/14 11:37:25;;;;;;;3.60;2.10;;;27.30;56.30;;;;;;4395663;28;655206;-65
2022/07/14 11:40:43;;;;;;;2.30;1.58;;;27.20;58.20;;;;;;4395569;28;655289;-65
2022/07/14 11:43:39;;;;;;;5.18;1.92;;;26.90;56.80;;;;;;4377217;28;654387;-65
2022/07/14 11:46:26;;;;;;;5.72;2.20;;;26.40;57.20;;;;;;4411250;28;654593;-65
2022/07/14 11:49:17;;;;;;;5.88;2.45;;;26.60;58.70;;;;;;4435704;28;653956;-65
2022/07/14 11:52:05;;;;;;;5.03;2.50;;;27.10;59.00;;;;;;4412863;28;654688;-65
2022/07/14 11:54:53;;;;;;;10.07;2.47;;;27.40;58.80;;;;;;4411466;28;654846;-65
2022/07/14 11:57:40;;;;;;;3.70;2.30;;;27.40;57.30;;;;;;4415709;28;655572;-65
2022/07/14 12:00:29;;;;;;;5.93;2.85;;;27.90;59.50;;;;;;4435909;28;655814;-65
2022/07/14 12:03:16;;;;;;;4.70;2.58;;;28.40;61.20;;;;;;4416705;28;654039;-65
2022/07/14 12:06:04;;;;;;;7.43;2.67;;;28.10;56.70;;;;;;4435131;28;654611;-65
2022/07/14 12:08:52;;;;;;;3.88;2.70;;;28.40;56.30;;;;;;4416767;28;654839;-65
2022/07/14 12:11:39;;;;;;;9.10;2.53;;;28.10;58.80;;;;;;4435469;28;654423;-65
2022/07/14 12:14:27;;;;;;;5.80;2.80;;;28.20;56.10;;;;;;4416515;28;655272;-65
2022/07/14 12:17:16;;;;;;;3.17;2.22;;;28.20;56.90;;;;;;4435483;28;655046;-65
2022/07/14 12:20:03;;;;;;;3.63;2.53;;;28.10;57.40;;;;;;4412458;28;655842;-65
2022/07/14 12:22:53;;;;;;;9.65;2.47;;;28.20;58.80;;;;;;4416798;28;654567;-65
2022/07/14 12:25:41;;;;;;;4.93;2.60;;;28.10;56.10;;;;;;4428239;28;655251;-65
2022/07/14 12:28:28;;;;;;;4.50;2.40;;;28.30;60.90;;;;;;4434059;28;656486;-65
2022/07/14 12:31:15;;;;;;;4.03;2.33;;;28.60;56.20;;;;;;4415306;28;656231;-65
2022/07/14 12:34:04;;;;;;;5.63;2.50;;;28.40;57.60;;;;;;4438214;28;655666;-65
2022/07/14 12:36:51;;;;;;;3.63;2.53;;;28.60;54.80;;;;;;4414773;28;655949;-65
2022/07/14 12:39:39;;;;;;;6.43;2.40;;;29.10;54.90;;;;;;4433674;28;656535;-65
2022/07/14 12:42:26;;;;;;;7.32;2.85;;;29.00;54.00;;;;;;4410858;28;655759;-66
2022/07/14 12:45:13;;;;;;;5.05;2.75;;;28.80;56.60;;;;;;4432461;28;656818;-65
2022/07/14 12:48:03;;;;;;;3.33;2.17;;;29.30;54.60;;;;;;4414380;28;655317;-66
2022/07/14 12:50:52;;;;;;;5.28;2.35;;;28.50;52.70;;;;;;4424041;28;655624;-66
2022/07/14 12:53:39;;;;;;;4.53;2.60;;;29.10;54.00;;;;;;4433760;28;656329;-65
2022/07/14 12:56:26;;;;;;;7.30;2.50;;;29.00;53.70;;;;;;4415029;28;655207;-65
2022/07/14 12:59:14;;;;;;;7.05;2.35;;;28.40;58.10;;;;;;4433846;28;656643;-65
2022/07/14 13:02:02;;;;;;;3.88;2.58;;;28.20;60.40;;;;;;4415025;28;655447;-65
2022/07/14 13:04:52;;;;;;;5.22;2.80;;;27.90;56.70;;;;;;4433831;28;655534;-65
2022/07/14 13:07:43;;;;;;;4.40;2.70;;;27.70;58.50;;;;;;4433544;28;655343;-65
2022/07/14 13:10:31;;;;;;;4.10;2.55;;;27.40;57.80;;;;;;4414428;28;655943;-65
2022/07/14 13:13:28;;;;;;;6.68;2.92;;;26.80;59.70;;;;;;4437044;28;656207;-65
2022/07/14 13:16:26;;;;;;;6.60;2.75;;;27.20;59.70;;;;;;4404290;28;656237;-66
2022/07/14 13:19:22;;;;;;;8.75;2.95;;;27.30;62.80;;;;;;4407681;28;656491;-65
2022/07/14 13:22:10;;;;;;;5.80;2.95;;;27.30;63.40;;;;;;4414418;28;655203;-65
2022/07/14 13:24:59;;;;;;;6.20;2.80;;;27.30;58.90;;;;;;4414205;28;656199;-65
2022/07/14 13:27:46;;;;;;;3.47;2.83;;;27.20;62.00;;;;;;4418243;28;655513;-65
2022/07/14 13:30:33;;;;;;;5.22;2.65;;;27.40;61.00;;;;;;4438060;28;656263;-65
2022/07/14 13:33:20;;;;;;;3.83;2.70;;;27.40;66.20;;;;;;4421017;28;655755;-65
2022/07/14 13:36:08;;;;;;;4.07;2.78;;;27.40;59.70;;;;;;4436811;28;656016;-65
2022/07/14 13:38:56;;;;;;;7.07;2.75;;;26.90;60.10;;;;;;4417669;28;656236;-65
2022/07/14 13:41:44;;;;;;;5.45;2.70;;;26.90;65.60;;;;;;4434893;28;656468;-65
2022/07/14 13:44:31;;;;;;;5.70;2.97;;;27.00;65.50;;;;;;4413954;28;656815;-65
2022/07/14 13:47:18;;;;;;;4.28;2.90;;;26.90;64.60;;;;;;4419490;28;655486;-65
2022/07/14 13:53:12;;;;;;;6.82;2.90;;;26.20;62.50;;;;;;4373569;28;656084;-65
2022/07/14 13:55:59;;;;;;;5.00;2.60;;;26.10;65.40;;;;;;4417896;28;655674;-65
2022/07/14 13:58:47;;;;;;;4.65;2.72;;;26.30;65.30;;;;;;4400299;28;655612;-65
2022/07/14 14:01:34;;;;;;;6.65;3.10;;;26.50;65.00;;;;;;4419320;28;655834;-65
2022/07/14 14:04:22;;;;;;;3.45;2.55;;;26.40;64.90;;;;;;4400188;28;655447;-65
2022/07/14 14:07:09;;;;;;;6.78;2.88;;;26.00;64.30;;;;;;4419090;28;655584;-65
2022/07/14 14:09:56;;;;;;;7.63;2.70;;;26.20;68.20;;;;;;4399844;28;655284;-66
2022/07/14 14:12:43;;;;;;;4.30;2.90;;;26.40;64.90;;;;;;4421601;28;656102;-65
2022/07/14 14:15:31;;;;;;;8.35;3.10;;;26.60;69.10;;;;;;4404882;28;655589;-66
2022/07/14 14:18:19;;;;;;;4.63;2.58;;;26.60;65.90;;;;;;4418623;28;655644;-65
2022/07/14 14:21:06;;;;;;;7.30;3.00;;;27.10;67.40;;;;;;4399391;28;656052;-65
2022/07/14 14:23:55;;;;;;;5.38;2.90;;;27.30;65.80;;;;;;4418568;28;655446;-65
2022/07/14 14:26:42;;;;;;;8.13;2.70;;;27.50;62.70;;;;;;4395976;28;657287;-65
2022/07/14 14:29:29;;;;;;;9.38;2.60;;;27.50;66.90;;;;;;4417569;28;655152;-65
2022/07/14 14:32:17;;;;;;;7.35;2.80;;;27.80;65.90;;;;;;4399535;28;655604;-65
2022/07/14 14:35:06;;;;;;;3.67;2.88;;;27.90;62.70;;;;;;4418250;28;655405;-65
2022/07/14 14:37:53;;;;;;;4.97;2.72;;;27.80;62.80;;;;;;4395713;28;656018;-65
2022/07/14 14:40:40;;;;;;;9.45;3.08;;;27.80;63.30;;;;;;4403453;28;655330;-65